Ana Sayfa
METAR-TAF:

METAR-TAF

Havaalanları :

Kuveyt, Kuveyt

Enlem: 29-13N, Boylam: 047-59E, yükseklik: 55 m

Güncel hava durumu gözlemi

Rapor saat 16:00 UTC de 1 saat ve 8 dakika önce yapıldı.
Rüzgar güneydoğudan 7 kt
Sıcaklık 17°C
Nem 52%
Basınç 1015 hPa
Görüş mesafesi 10 km veya daha fazla
1500 m altında bulut yok ve kümülonimbus yok

METAR: OKBK 141600Z 13007KT CAVOK 17/07 Q1015 NOSIG

Saat: 20:08 (17:08 UTC)

Tahmin

Rapor saat 16:45 UTC de 24 saat ve 23 dakika önce yapıldı.
Ayın 12'si saat 18 UTC'den ayın 13'si saat 24 UTC'ye kadar geçerli Tahmin
Rüzgar kuzeybatıdan 8 kt ve 18 kt'a kadar ani rüzgarlar
Görüş mesafesi: 7000 m
Açık gökyüzü

TAF: OKBK 121645Z 1218/1324 32008G18KT 7000 SKC

4.000'den fazla havaalanı için hava durumu gözlemleri ve tahminleri (METAR ve TAF raporları).

Kullanılabilir istasyonlar harita üzerinde sarı ve kırmızı noktalarla gösterilir.

İstasyonun adını görmek için fareyi noktanın üzerinde gezdirin.

Sonrasında hava gözlem ve tahminlerini görmek için tıklayın.

Haritayı değiştirmek için: yaklaştırmak için siyah artı işaretli yeşil düğmeye ve uzaklaştırmak için de eksi işaretli düğmeye hızla tıklayın; bitişik haritalar için yeşil okları kullanın.


METAR-TAF: